sensor_id;sensor_type;location;lat;lon;timestamp;P1;durP1;ratioP1;P2;durP2;ratioP2
32824;SDS011;51060;42.640;24.356;2022-11-20T00:02:03;57.23;;;42.53;;
32824;SDS011;51060;42.640;24.356;2022-11-20T00:04:28;74.70;;;49.57;;
32824;SDS011;51060;42.640;24.356;2022-11-20T00:06:54;85.53;;;63.73;;
32824;SDS011;51060;42.640;24.356;2022-11-20T00:09:19;48.77;;;39.90;;
32824;SDS011;51060;42.640;24.356;2022-11-20T00:11:45;92.87;;;73.97;;
32824;SDS011;51060;42.640;24.356;2022-11-20T00:14:11;98.10;;;76.03;;
32824;SDS011;51060;42.640;24.356;2022-11-20T00:16:36;74.10;;;59.67;;
32824;SDS011;51060;42.640;24.356;2022-11-20T00:19:02;88.00;;;68.97;;
32824;SDS011;51060;42.640;24.356;2022-11-20T00:21:29;70.73;;;53.63;;
32824;SDS011;51060;42.640;24.356;2022-11-20T00:23:55;71.60;;;54.73;;
32824;SDS011;51060;42.640;24.356;2022-11-20T00:26:22;67.07;;;50.33;;
32824;SDS011;51060;42.640;24.356;2022-11-20T00:28:54;46.17;;;34.77;;
32824;SDS011;51060;42.640;24.356;2022-11-20T00:31:21;45.30;;;33.70;;
32824;SDS011;51060;42.640;24.356;2022-11-20T00:33:46;46.47;;;35.20;;
32824;SDS011;51060;42.640;24.356;2022-11-20T00:36:16;34.67;;;26.27;;
32824;SDS011;51060;42.640;24.356;2022-11-20T00:38:45;30.47;;;22.23;;
32824;SDS011;51060;42.640;24.356;2022-11-20T00:41:12;46.03;;;34.83;;
32824;SDS011;51060;42.640;24.356;2022-11-20T00:43:39;52.47;;;40.20;;
32824;SDS011;51060;42.640;24.356;2022-11-20T00:46:06;40.60;;;32.83;;
32824;SDS011;51060;42.640;24.356;2022-11-20T00:48:33;55.53;;;41.83;;
32824;SDS011;51060;42.640;24.356;2022-11-20T00:50:59;50.47;;;38.17;;
32824;SDS011;51060;42.640;24.356;2022-11-20T00:53:24;43.73;;;33.67;;
32824;SDS011;51060;42.640;24.356;2022-11-20T00:55:57;39.80;;;30.37;;
32824;SDS011;51060;42.640;24.356;2022-11-20T00:58:25;36.97;;;27.67;;
32824;SDS011;51060;42.640;24.356;2022-11-20T01:00:59;35.50;;;27.43;;
32824;SDS011;51060;42.640;24.356;2022-11-20T01:03:32;45.10;;;31.93;;
32824;SDS011;51060;42.640;24.356;2022-11-20T01:06:03;39.43;;;26.23;;
32824;SDS011;51060;42.640;24.356;2022-11-20T01:08:30;35.37;;;23.97;;
32824;SDS011;51060;42.640;24.356;2022-11-20T01:11:07;41.53;;;30.00;;
32824;SDS011;51060;42.640;24.356;2022-11-20T01:13:34;42.67;;;30.67;;
32824;SDS011;51060;42.640;24.356;2022-11-20T01:16:08;51.50;;;38.60;;
32824;SDS011;51060;42.640;24.356;2022-11-20T01:18:43;32.63;;;24.63;;
32824;SDS011;51060;42.640;24.356;2022-11-20T01:21:12;47.40;;;37.10;;
32824;SDS011;51060;42.640;24.356;2022-11-20T01:23:40;35.20;;;27.83;;
32824;SDS011;51060;42.640;24.356;2022-11-20T01:26:07;43.60;;;32.27;;
32824;SDS011;51060;42.640;24.356;2022-11-20T01:28:34;49.83;;;34.60;;
32824;SDS011;51060;42.640;24.356;2022-11-20T01:31:00;17.00;;;11.23;;
32824;SDS011;51060;42.640;24.356;2022-11-20T01:33:26;35.23;;;24.13;;
32824;SDS011;51060;42.640;24.356;2022-11-20T01:35:52;39.23;;;30.20;;
32824;SDS011;51060;42.640;24.356;2022-11-20T01:38:18;34.20;;;25.37;;
32824;SDS011;51060;42.640;24.356;2022-11-20T01:40:45;144.00;;;80.97;;
32824;SDS011;51060;42.640;24.356;2022-11-20T01:43:18;67.33;;;43.67;;
32824;SDS011;51060;42.640;24.356;2022-11-20T01:48:38;48.27;;;31.67;;
32824;SDS011;51060;42.640;24.356;2022-11-20T01:53:56;51.20;;;36.00;;
32824;SDS011;51060;42.640;24.356;2022-11-20T01:56:23;50.50;;;38.37;;
32824;SDS011;51060;42.640;24.356;2022-11-20T01:58:50;49.03;;;36.03;;
32824;SDS011;51060;42.640;24.356;2022-11-20T02:01:18;53.23;;;38.63;;
32824;SDS011;51060;42.640;24.356;2022-11-20T02:03:43;47.50;;;35.13;;
32824;SDS011;51060;42.640;24.356;2022-11-20T02:06:25;49.87;;;37.60;;
32824;SDS011;51060;42.640;24.356;2022-11-20T02:08:54;53.37;;;42.20;;
32824;SDS011;51060;42.640;24.356;2022-11-20T02:11:20;43.00;;;32.50;;
32824;SDS011;51060;42.640;24.356;2022-11-20T02:13:46;42.27;;;33.80;;
32824;SDS011;51060;42.640;24.356;2022-11-20T02:16:22;40.50;;;35.23;;
32824;SDS011;51060;42.640;24.356;2022-11-20T02:18:49;40.50;;;30.37;;
32824;SDS011;51060;42.640;24.356;2022-11-20T02:24:19;65.80;;;49.13;;
32824;SDS011;51060;42.640;24.356;2022-11-20T02:27:04;50.63;;;38.20;;
32824;SDS011;51060;42.640;24.356;2022-11-20T02:29:39;32.83;;;24.37;;
32824;SDS011;51060;42.640;24.356;2022-11-20T02:32:33;24.10;;;19.73;;
32824;SDS011;51060;42.640;24.356;2022-11-20T02:35:09;30.37;;;23.73;;
32824;SDS011;51060;42.640;24.356;2022-11-20T02:37:56;28.63;;;22.63;;
32824;SDS011;51060;42.640;24.356;2022-11-20T02:40:23;40.47;;;32.60;;
32824;SDS011;51060;42.640;24.356;2022-11-20T02:42:52;50.50;;;39.93;;
32824;SDS011;51060;42.640;24.356;2022-11-20T02:45:18;43.97;;;33.67;;
32824;SDS011;51060;42.640;24.356;2022-11-20T02:47:44;48.33;;;37.53;;
32824;SDS011;51060;42.640;24.356;2022-11-20T02:50:09;39.17;;;31.80;;
32824;SDS011;51060;42.640;24.356;2022-11-20T02:52:35;44.93;;;32.57;;
32824;SDS011;51060;42.640;24.356;2022-11-20T02:55:01;44.90;;;34.23;;
32824;SDS011;51060;42.640;24.356;2022-11-20T02:57:27;36.90;;;31.30;;
32824;SDS011;51060;42.640;24.356;2022-11-20T02:59:53;28.20;;;22.57;;
32824;SDS011;51060;42.640;24.356;2022-11-20T03:02:18;20.90;;;16.53;;
32824;SDS011;51060;42.640;24.356;2022-11-20T03:04:44;17.00;;;12.73;;
32824;SDS011;51060;42.640;24.356;2022-11-20T03:07:09;13.73;;;10.20;;
32824;SDS011;51060;42.640;24.356;2022-11-20T03:09:35;14.03;;;11.10;;
32824;SDS011;51060;42.640;24.356;2022-11-20T03:12:01;9.97;;;8.97;;
32824;SDS011;51060;42.640;24.356;2022-11-20T03:14:26;17.27;;;12.77;;
32824;SDS011;51060;42.640;24.356;2022-11-20T03:16:52;14.03;;;11.57;;
32824;SDS011;51060;42.640;24.356;2022-11-20T03:19:17;17.10;;;14.27;;
32824;SDS011;51060;42.640;24.356;2022-11-20T03:21:43;27.53;;;24.53;;
32824;SDS011;51060;42.640;24.356;2022-11-20T03:24:09;25.07;;;18.20;;
32824;SDS011;51060;42.640;24.356;2022-11-20T03:26:34;22.80;;;19.97;;
32824;SDS011;51060;42.640;24.356;2022-11-20T03:29:01;20.83;;;17.87;;
32824;SDS011;51060;42.640;24.356;2022-11-20T03:31:29;19.30;;;16.17;;
32824;SDS011;51060;42.640;24.356;2022-11-20T03:33:56;21.17;;;17.60;;
32824;SDS011;51060;42.640;24.356;2022-11-20T03:36:23;20.93;;;16.50;;
32824;SDS011;51060;42.640;24.356;2022-11-20T03:38:48;29.83;;;24.17;;
32824;SDS011;51060;42.640;24.356;2022-11-20T03:41:21;30.27;;;26.30;;
32824;SDS011;51060;42.640;24.356;2022-11-20T03:43:51;40.50;;;34.20;;
32824;SDS011;51060;42.640;24.356;2022-11-20T03:46:18;40.67;;;36.30;;
32824;SDS011;51060;42.640;24.356;2022-11-20T03:48:44;44.93;;;39.17;;
32824;SDS011;51060;42.640;24.356;2022-11-20T03:53:36;49.13;;;42.53;;
32824;SDS011;51060;42.640;24.356;2022-11-20T03:56:02;60.03;;;49.33;;
32824;SDS011;51060;42.640;24.356;2022-11-20T03:58:28;45.30;;;38.77;;
32824;SDS011;51060;42.640;24.356;2022-11-20T04:00:54;61.40;;;50.70;;
32824;SDS011;51060;42.640;24.356;2022-11-20T04:03:19;48.37;;;41.80;;
32824;SDS011;51060;42.640;24.356;2022-11-20T04:05:45;54.10;;;44.53;;
32824;SDS011;51060;42.640;24.356;2022-11-20T04:08:10;57.87;;;48.53;;
32824;SDS011;51060;42.640;24.356;2022-11-20T04:10:36;182.40;;;106.63;;
32824;SDS011;51060;42.640;24.356;2022-11-20T04:13:02;81.33;;;58.73;;
32824;SDS011;51060;42.640;24.356;2022-11-20T04:15:28;66.67;;;51.00;;
32824;SDS011;51060;42.640;24.356;2022-11-20T04:17:53;56.80;;;45.07;;
32824;SDS011;51060;42.640;24.356;2022-11-20T04:20:20;60.53;;;47.07;;
32824;SDS011;51060;42.640;24.356;2022-11-20T04:22:46;62.13;;;48.30;;
32824;SDS011;51060;42.640;24.356;2022-11-20T04:25:11;70.73;;;55.67;;
32824;SDS011;51060;42.640;24.356;2022-11-20T04:27:37;61.00;;;48.40;;
32824;SDS011;51060;42.640;24.356;2022-11-20T04:30:02;59.03;;;46.37;;
32824;SDS011;51060;42.640;24.356;2022-11-20T04:32:28;63.50;;;53.80;;
32824;SDS011;51060;42.640;24.356;2022-11-20T04:34:54;51.40;;;43.10;;
32824;SDS011;51060;42.640;24.356;2022-11-20T04:37:19;51.67;;;44.57;;
32824;SDS011;51060;42.640;24.356;2022-11-20T04:39:45;52.40;;;43.33;;
32824;SDS011;51060;42.640;24.356;2022-11-20T04:42:10;48.43;;;41.30;;
32824;SDS011;51060;42.640;24.356;2022-11-20T04:44:54;61.67;;;48.90;;
32824;SDS011;51060;42.640;24.356;2022-11-20T04:47:20;78.17;;;62.63;;
32824;SDS011;51060;42.640;24.356;2022-11-20T04:49:46;77.40;;;60.90;;
32824;SDS011;51060;42.640;24.356;2022-11-20T04:52:12;76.40;;;62.60;;
32824;SDS011;51060;42.640;24.356;2022-11-20T04:54:37;72.00;;;59.13;;
32824;SDS011;51060;42.640;24.356;2022-11-20T04:57:03;73.80;;;61.17;;
32824;SDS011;51060;42.640;24.356;2022-11-20T04:59:28;70.03;;;62.43;;
32824;SDS011;51060;42.640;24.356;2022-11-20T05:01:54;72.87;;;65.00;;
32824;SDS011;51060;42.640;24.356;2022-11-20T05:04:19;66.17;;;58.97;;
32824;SDS011;51060;42.640;24.356;2022-11-20T05:06:45;73.13;;;64.37;;
32824;SDS011;51060;42.640;24.356;2022-11-20T05:09:11;100.70;;;77.07;;
32824;SDS011;51060;42.640;24.356;2022-11-20T05:11:39;74.83;;;63.00;;
32824;SDS011;51060;42.640;24.356;2022-11-20T05:14:04;82.80;;;66.97;;
32824;SDS011;51060;42.640;24.356;2022-11-20T05:16:30;87.07;;;67.37;;
32824;SDS011;51060;42.640;24.356;2022-11-20T05:18:56;67.00;;;54.63;;
32824;SDS011;51060;42.640;24.356;2022-11-20T05:21:21;65.93;;;53.43;;
32824;SDS011;51060;42.640;24.356;2022-11-20T05:23:47;75.60;;;59.30;;
32824;SDS011;51060;42.640;24.356;2022-11-20T05:26:14;80.23;;;65.80;;
32824;SDS011;51060;42.640;24.356;2022-11-20T05:28:46;71.10;;;57.33;;
32824;SDS011;51060;42.640;24.356;2022-11-20T05:31:13;79.17;;;68.30;;
32824;SDS011;51060;42.640;24.356;2022-11-20T05:33:41;75.33;;;65.13;;
32824;SDS011;51060;42.640;24.356;2022-11-20T05:36:08;93.57;;;83.33;;
32824;SDS011;51060;42.640;24.356;2022-11-20T05:38:34;87.93;;;78.60;;
32824;SDS011;51060;42.640;24.356;2022-11-20T05:41:07;97.70;;;87.03;;
32824;SDS011;51060;42.640;24.356;2022-11-20T05:43:34;89.83;;;79.00;;
32824;SDS011;51060;42.640;24.356;2022-11-20T05:46:01;64.37;;;56.13;;
32824;SDS011;51060;42.640;24.356;2022-11-20T05:48:27;62.73;;;55.80;;
32824;SDS011;51060;42.640;24.356;2022-11-20T05:50:53;65.33;;;58.17;;
32824;SDS011;51060;42.640;24.356;2022-11-20T05:53:19;77.40;;;69.23;;
32824;SDS011;51060;42.640;24.356;2022-11-20T05:55:44;78.37;;;68.77;;
32824;SDS011;51060;42.640;24.356;2022-11-20T05:58:10;131.47;;;108.10;;
32824;SDS011;51060;42.640;24.356;2022-11-20T06:00:36;111.20;;;85.27;;
32824;SDS011;51060;42.640;24.356;2022-11-20T06:03:01;103.87;;;83.03;;
32824;SDS011;51060;42.640;24.356;2022-11-20T06:05:27;122.57;;;100.13;;
32824;SDS011;51060;42.640;24.356;2022-11-20T06:07:53;126.53;;;106.73;;
32824;SDS011;51060;42.640;24.356;2022-11-20T06:10:18;132.10;;;107.70;;
32824;SDS011;51060;42.640;24.356;2022-11-20T06:12:44;137.27;;;108.37;;
32824;SDS011;51060;42.640;24.356;2022-11-20T06:15:09;114.57;;;91.67;;
32824;SDS011;51060;42.640;24.356;2022-11-20T06:17:35;104.60;;;84.80;;
32824;SDS011;51060;42.640;24.356;2022-11-20T06:20:01;93.13;;;81.33;;
32824;SDS011;51060;42.640;24.356;2022-11-20T06:22:26;89.20;;;77.60;;
32824;SDS011;51060;42.640;24.356;2022-11-20T06:24:52;82.57;;;71.93;;
32824;SDS011;51060;42.640;24.356;2022-11-20T06:27:17;51.63;;;46.03;;
32824;SDS011;51060;42.640;24.356;2022-11-20T06:29:43;47.37;;;41.60;;
32824;SDS011;51060;42.640;24.356;2022-11-20T06:32:09;59.33;;;52.67;;
32824;SDS011;51060;42.640;24.356;2022-11-20T06:34:34;52.43;;;44.03;;
32824;SDS011;51060;42.640;24.356;2022-11-20T06:37:00;65.43;;;50.87;;
32824;SDS011;51060;42.640;24.356;2022-11-20T06:39:25;58.93;;;48.00;;
32824;SDS011;51060;42.640;24.356;2022-11-20T06:41:51;64.43;;;54.30;;
32824;SDS011;51060;42.640;24.356;2022-11-20T06:44:16;54.00;;;44.63;;
32824;SDS011;51060;42.640;24.356;2022-11-20T06:46:42;47.67;;;38.90;;
32824;SDS011;51060;42.640;24.356;2022-11-20T06:49:07;46.77;;;35.63;;
32824;SDS011;51060;42.640;24.356;2022-11-20T06:51:33;38.57;;;32.07;;
32824;SDS011;51060;42.640;24.356;2022-11-20T06:53:58;46.90;;;37.97;;
32824;SDS011;51060;42.640;24.356;2022-11-20T06:56:26;50.90;;;45.10;;
32824;SDS011;51060;42.640;24.356;2022-11-20T06:58:51;53.27;;;46.97;;
32824;SDS011;51060;42.640;24.356;2022-11-20T07:01:17;58.47;;;51.00;;
32824;SDS011;51060;42.640;24.356;2022-11-20T07:03:42;70.40;;;60.33;;
32824;SDS011;51060;42.640;24.356;2022-11-20T07:06:08;55.83;;;48.77;;
32824;SDS011;51060;42.640;24.356;2022-11-20T07:08:34;77.33;;;66.80;;
32824;SDS011;51060;42.640;24.356;2022-11-20T07:11:00;65.50;;;54.60;;
32824;SDS011;51060;42.640;24.356;2022-11-20T07:13:30;54.33;;;48.47;;
32824;SDS011;51060;42.640;24.356;2022-11-20T07:15:59;55.93;;;48.10;;
32824;SDS011;51060;42.640;24.356;2022-11-20T07:18:26;46.77;;;40.80;;
32824;SDS011;51060;42.640;24.356;2022-11-20T07:20:52;42.88;;;38.38;;
32824;SDS011;51060;42.640;24.356;2022-11-20T07:23:17;40.28;;;35.15;;
32824;SDS011;51060;42.640;24.356;2022-11-20T07:25:43;46.83;;;38.70;;
32824;SDS011;51060;42.640;24.356;2022-11-20T07:28:09;44.43;;;38.37;;
32824;SDS011;51060;42.640;24.356;2022-11-20T07:30:35;45.53;;;36.73;;
32824;SDS011;51060;42.640;24.356;2022-11-20T07:33:01;33.67;;;25.37;;
32824;SDS011;51060;42.640;24.356;2022-11-20T07:35:27;22.33;;;16.30;;
32824;SDS011;51060;42.640;24.356;2022-11-20T07:37:52;23.70;;;16.23;;
32824;SDS011;51060;42.640;24.356;2022-11-20T07:40:18;22.00;;;17.23;;
32824;SDS011;51060;42.640;24.356;2022-11-20T07:42:50;21.90;;;16.30;;
32824;SDS011;51060;42.640;24.356;2022-11-20T07:45:20;19.60;;;16.00;;
32824;SDS011;51060;42.640;24.356;2022-11-20T07:47:46;21.03;;;16.00;;
32824;SDS011;51060;42.640;24.356;2022-11-20T07:50:12;19.67;;;15.50;;
32824;SDS011;51060;42.640;24.356;2022-11-20T07:52:38;19.85;;;17.77;;
32824;SDS011;51060;42.640;24.356;2022-11-20T07:55:04;16.10;;;13.60;;
32824;SDS011;51060;42.640;24.356;2022-11-20T07:57:30;20.10;;;15.70;;
32824;SDS011;51060;42.640;24.356;2022-11-20T07:59:56;19.63;;;17.13;;
32824;SDS011;51060;42.640;24.356;2022-11-20T08:02:22;20.52;;;17.17;;
32824;SDS011;51060;42.640;24.356;2022-11-20T08:04:47;19.98;;;15.63;;
32824;SDS011;51060;42.640;24.356;2022-11-20T08:07:13;29.83;;;20.80;;
32824;SDS011;51060;42.640;24.356;2022-11-20T08:09:38;24.13;;;19.60;;
32824;SDS011;51060;42.640;24.356;2022-11-20T08:12:04;23.45;;;18.50;;
32824;SDS011;51060;42.640;24.356;2022-11-20T08:14:48;14.38;;;10.30;;
32824;SDS011;51060;42.640;24.356;2022-11-20T08:17:14;13.48;;;10.10;;
32824;SDS011;51060;42.640;24.356;2022-11-20T08:19:39;18.83;;;13.20;;
32824;SDS011;51060;42.640;24.356;2022-11-20T08:22:07;13.20;;;10.10;;
32824;SDS011;51060;42.640;24.356;2022-11-20T08:24:35;13.52;;;10.10;;
32824;SDS011;51060;42.640;24.356;2022-11-20T08:27:01;15.77;;;11.47;;
32824;SDS011;51060;42.640;24.356;2022-11-20T08:29:26;16.45;;;12.82;;
32824;SDS011;51060;42.640;24.356;2022-11-20T08:31:52;20.85;;;15.15;;
32824;SDS011;51060;42.640;24.356;2022-11-20T08:34:18;17.67;;;14.85;;
32824;SDS011;51060;42.640;24.356;2022-11-20T08:36:43;22.85;;;17.27;;
32824;SDS011;51060;42.640;24.356;2022-11-20T08:39:11;32.80;;;26.20;;
32824;SDS011;51060;42.640;24.356;2022-11-20T08:41:37;19.58;;;13.40;;
32824;SDS011;51060;42.640;24.356;2022-11-20T08:44:03;14.00;;;9.82;;
32824;SDS011;51060;42.640;24.356;2022-11-20T08:46:36;9.65;;;5.78;;
32824;SDS011;51060;42.640;24.356;2022-11-20T08:49:04;8.48;;;3.80;;
32824;SDS011;51060;42.640;24.356;2022-11-20T08:51:31;10.13;;;4.40;;
32824;SDS011;51060;42.640;24.356;2022-11-20T08:53:57;8.85;;;6.03;;
32824;SDS011;51060;42.640;24.356;2022-11-20T08:56:23;13.65;;;8.05;;
32824;SDS011;51060;42.640;24.356;2022-11-20T08:58:49;12.43;;;7.90;;
32824;SDS011;51060;42.640;24.356;2022-11-20T09:01:16;30.50;;;17.35;;
32824;SDS011;51060;42.640;24.356;2022-11-20T09:03:42;33.88;;;23.20;;
32824;SDS011;51060;42.640;24.356;2022-11-20T09:06:08;52.80;;;25.60;;
32824;SDS011;51060;42.640;24.356;2022-11-20T09:08:33;21.55;;;12.48;;
32824;SDS011;51060;42.640;24.356;2022-11-20T09:11:01;13.48;;;8.77;;
32824;SDS011;51060;42.640;24.356;2022-11-20T09:13:29;11.27;;;6.57;;
32824;SDS011;51060;42.640;24.356;2022-11-20T09:18:22;7.43;;;3.90;;
32824;SDS011;51060;42.640;24.356;2022-11-20T09:20:49;14.40;;;9.35;;
32824;SDS011;51060;42.640;24.356;2022-11-20T09:23:15;12.25;;;7.30;;
32824;SDS011;51060;42.640;24.356;2022-11-20T09:25:41;12.98;;;7.30;;
32824;SDS011;51060;42.640;24.356;2022-11-20T09:28:07;13.02;;;7.95;;
32824;SDS011;51060;42.640;24.356;2022-11-20T09:30:32;19.67;;;11.70;;
32824;SDS011;51060;42.640;24.356;2022-11-20T09:32:58;14.88;;;8.13;;
32824;SDS011;51060;42.640;24.356;2022-11-20T09:35:23;21.48;;;13.82;;
32824;SDS011;51060;42.640;24.356;2022-11-20T09:37:49;38.55;;;24.02;;
32824;SDS011;51060;42.640;24.356;2022-11-20T09:40:24;10.48;;;6.75;;
32824;SDS011;51060;42.640;24.356;2022-11-20T09:45:42;12.80;;;7.20;;
32824;SDS011;51060;42.640;24.356;2022-11-20T09:51:06;9.93;;;6.20;;
32824;SDS011;51060;42.640;24.356;2022-11-20T09:54:20;9.52;;;6.22;;
32824;SDS011;51060;42.640;24.356;2022-11-20T09:56:29;11.00;;;7.13;;
32824;SDS011;51060;42.640;24.356;2022-11-20T09:58:57;10.60;;;5.43;;
32824;SDS011;51060;42.640;24.356;2022-11-20T10:01:32;13.02;;;6.53;;
32824;SDS011;51060;42.640;24.356;2022-11-20T10:09:34;13.00;;;7.53;;
32824;SDS011;51060;42.640;24.356;2022-11-20T10:12:06;12.65;;;7.68;;
32824;SDS011;51060;42.640;24.356;2022-11-20T10:14:45;14.57;;;7.95;;
32824;SDS011;51060;42.640;24.356;2022-11-20T10:17:27;7.18;;;4.40;;
32824;SDS011;51060;42.640;24.356;2022-11-20T10:25:16;18.23;;;12.35;;
32824;SDS011;51060;42.640;24.356;2022-11-20T10:30:28;11.90;;;6.47;;
32824;SDS011;51060;42.640;24.356;2022-11-20T10:32:57;11.70;;;6.53;;
32824;SDS011;51060;42.640;24.356;2022-11-20T10:35:27;13.73;;;7.00;;
32824;SDS011;51060;42.640;24.356;2022-11-20T10:38:00;9.70;;;5.70;;
32824;SDS011;51060;42.640;24.356;2022-11-20T10:43:40;10.25;;;5.35;;
32824;SDS011;51060;42.640;24.356;2022-11-20T10:46:10;7.47;;;3.20;;
32824;SDS011;51060;42.640;24.356;2022-11-20T10:48:39;4.85;;;3.63;;
32824;SDS011;51060;42.640;24.356;2022-11-20T11:01:53;16.42;;;8.98;;
32824;SDS011;51060;42.640;24.356;2022-11-20T11:06:54;21.65;;;11.32;;
32824;SDS011;51060;42.640;24.356;2022-11-20T11:09:27;30.73;;;15.27;;
32824;SDS011;51060;42.640;24.356;2022-11-20T11:11:58;50.28;;;27.30;;
32824;SDS011;51060;42.640;24.356;2022-11-20T11:14:24;21.77;;;13.45;;
32824;SDS011;51060;42.640;24.356;2022-11-20T11:16:53;25.35;;;18.50;;
32824;SDS011;51060;42.640;24.356;2022-11-20T11:19:21;17.77;;;10.13;;
32824;SDS011;51060;42.640;24.356;2022-11-20T11:21:47;13.63;;;7.90;;
32824;SDS011;51060;42.640;24.356;2022-11-20T11:24:22;11.65;;;5.47;;
32824;SDS011;51060;42.640;24.356;2022-11-20T11:26:59;8.68;;;4.93;;
32824;SDS011;51060;42.640;24.356;2022-11-20T11:29:32;11.27;;;5.75;;
32824;SDS011;51060;42.640;24.356;2022-11-20T11:32:08;11.48;;;5.55;;
32824;SDS011;51060;42.640;24.356;2022-11-20T11:34:37;12.95;;;7.28;;
32824;SDS011;51060;42.640;24.356;2022-11-20T11:37:02;13.65;;;8.35;;
32824;SDS011;51060;42.640;24.356;2022-11-20T11:39:29;9.45;;;4.30;;
32824;SDS011;51060;42.640;24.356;2022-11-20T11:41:57;11.80;;;6.80;;
32824;SDS011;51060;42.640;24.356;2022-11-20T11:44:30;12.50;;;6.82;;
32824;SDS011;51060;42.640;24.356;2022-11-20T11:47:23;11.48;;;5.72;;
32824;SDS011;51060;42.640;24.356;2022-11-20T11:50:00;9.68;;;4.78;;
32824;SDS011;51060;42.640;24.356;2022-11-20T11:52:46;10.50;;;6.00;;
32824;SDS011;51060;42.640;24.356;2022-11-20T11:55:24;13.82;;;5.25;;
32824;SDS011;51060;42.640;24.356;2022-11-20T11:57:55;10.13;;;5.10;;
32824;SDS011;51060;42.640;24.356;2022-11-20T12:00:34;10.13;;;4.85;;
32824;SDS011;51060;42.640;24.356;2022-11-20T12:03:13;13.05;;;6.55;;
32824;SDS011;51060;42.640;24.356;2022-11-20T12:05:53;9.38;;;5.90;;
32824;SDS011;51060;42.640;24.356;2022-11-20T12:08:27;10.57;;;6.70;;
32824;SDS011;51060;42.640;24.356;2022-11-20T12:14:30;9.50;;;5.40;;
32824;SDS011;51060;42.640;24.356;2022-11-20T12:16:44;20.02;;;13.55;;
32824;SDS011;51060;42.640;24.356;2022-11-20T12:19:12;16.08;;;9.98;;
32824;SDS011;51060;42.640;24.356;2022-11-20T12:21:45;16.65;;;11.60;;
32824;SDS011;51060;42.640;24.356;2022-11-20T12:24:24;24.15;;;13.63;;
32824;SDS011;51060;42.640;24.356;2022-11-20T12:43:44;17.00;;;12.02;;
32824;SDS011;51060;42.640;24.356;2022-11-20T12:46:46;30.20;;;17.10;;
32824;SDS011;51060;42.640;24.356;2022-11-20T12:52:08;21.10;;;12.60;;
32824;SDS011;51060;42.640;24.356;2022-11-20T12:55:03;28.30;;;15.80;;
32824;SDS011;51060;42.640;24.356;2022-11-20T13:01:09;32.15;;;17.15;;
32824;SDS011;51060;42.640;24.356;2022-11-20T13:04:07;26.83;;;17.10;;
32824;SDS011;51060;42.640;24.356;2022-11-20T13:06:49;15.07;;;9.85;;
32824;SDS011;51060;42.640;24.356;2022-11-20T13:09:16;19.73;;;10.82;;
32824;SDS011;51060;42.640;24.356;2022-11-20T13:16:58;14.48;;;8.93;;
32824;SDS011;51060;42.640;24.356;2022-11-20T13:19:30;15.70;;;9.75;;
32824;SDS011;51060;42.640;24.356;2022-11-20T13:21:55;17.77;;;9.38;;
32824;SDS011;51060;42.640;24.356;2022-11-20T13:29:36;14.25;;;6.05;;
32824;SDS011;51060;42.640;24.356;2022-11-20T13:32:03;11.68;;;5.20;;
32824;SDS011;51060;42.640;24.356;2022-11-20T13:34:39;7.60;;;3.42;;
32824;SDS011;51060;42.640;24.356;2022-11-20T13:37:32;4.13;;;1.50;;
32824;SDS011;51060;42.640;24.356;2022-11-20T13:42:43;4.93;;;2.30;;
32824;SDS011;51060;42.640;24.356;2022-11-20T13:45:10;3.28;;;1.90;;
32824;SDS011;51060;42.640;24.356;2022-11-20T13:47:47;1.92;;;1.00;;
32824;SDS011;51060;42.640;24.356;2022-11-20T13:50:14;10.57;;;4.90;;
32824;SDS011;51060;42.640;24.356;2022-11-20T13:52:57;8.82;;;4.88;;
32824;SDS011;51060;42.640;24.356;2022-11-20T14:00:57;12.88;;;8.93;;
32824;SDS011;51060;42.640;24.356;2022-11-20T14:03:25;12.63;;;8.52;;
32824;SDS011;51060;42.640;24.356;2022-11-20T14:05:55;16.88;;;11.27;;
32824;SDS011;51060;42.640;24.356;2022-11-20T14:08:26;17.63;;;12.63;;
32824;SDS011;51060;42.640;24.356;2022-11-20T14:11:11;17.23;;;11.40;;
32824;SDS011;51060;42.640;24.356;2022-11-20T14:13:50;13.32;;;9.38;;
32824;SDS011;51060;42.640;24.356;2022-11-20T14:16:29;9.02;;;7.25;;
32824;SDS011;51060;42.640;24.356;2022-11-20T14:24:47;7.75;;;5.85;;
32824;SDS011;51060;42.640;24.356;2022-11-20T14:27:15;4.65;;;4.07;;
32824;SDS011;51060;42.640;24.356;2022-11-20T14:29:44;4.10;;;3.20;;
32824;SDS011;51060;42.640;24.356;2022-11-20T14:32:11;3.50;;;2.97;;
32824;SDS011;51060;42.640;24.356;2022-11-20T14:34:38;3.78;;;3.20;;
32824;SDS011;51060;42.640;24.356;2022-11-20T14:37:12;3.47;;;1.65;;
32824;SDS011;51060;42.640;24.356;2022-11-20T14:39:42;5.70;;;3.17;;
32824;SDS011;51060;42.640;24.356;2022-11-20T14:42:18;18.38;;;16.48;;
32824;SDS011;51060;42.640;24.356;2022-11-20T14:44:48;21.25;;;19.05;;
32824;SDS011;51060;42.640;24.356;2022-11-20T14:47:17;20.23;;;18.13;;
32824;SDS011;51060;42.640;24.356;2022-11-20T14:49:44;21.42;;;19.20;;
32824;SDS011;51060;42.640;24.356;2022-11-20T14:52:20;15.60;;;13.38;;
32824;SDS011;51060;42.640;24.356;2022-11-20T14:54:47;14.63;;;10.85;;
32824;SDS011;51060;42.640;24.356;2022-11-20T14:57:25;20.93;;;14.60;;
32824;SDS011;51060;42.640;24.356;2022-11-20T15:02:31;49.13;;;43.77;;
32824;SDS011;51060;42.640;24.356;2022-11-20T15:04:58;51.17;;;44.08;;
32824;SDS011;51060;42.640;24.356;2022-11-20T15:07:27;76.32;;;64.70;;
32824;SDS011;51060;42.640;24.356;2022-11-20T15:10:03;52.77;;;47.27;;
32824;SDS011;51060;42.640;24.356;2022-11-20T15:12:31;43.83;;;39.03;;
32824;SDS011;51060;42.640;24.356;2022-11-20T15:14:59;46.67;;;37.88;;
32824;SDS011;51060;42.640;24.356;2022-11-20T15:17:25;30.00;;;22.77;;
32824;SDS011;51060;42.640;24.356;2022-11-20T15:19:51;14.87;;;10.97;;
32824;SDS011;51060;42.640;24.356;2022-11-20T15:22:17;15.00;;;13.48;;
32824;SDS011;51060;42.640;24.356;2022-11-20T15:24:43;14.48;;;10.70;;
32824;SDS011;51060;42.640;24.356;2022-11-20T15:27:09;20.33;;;14.23;;
32824;SDS011;51060;42.640;24.356;2022-11-20T15:29:37;15.90;;;12.67;;
32824;SDS011;51060;42.640;24.356;2022-11-20T15:32:03;19.13;;;15.38;;
32824;SDS011;51060;42.640;24.356;2022-11-20T15:34:28;60.70;;;53.90;;
32824;SDS011;51060;42.640;24.356;2022-11-20T15:36:54;74.17;;;61.97;;
32824;SDS011;51060;42.640;24.356;2022-11-20T15:39:20;50.15;;;42.30;;
32824;SDS011;51060;42.640;24.356;2022-11-20T15:41:45;30.10;;;25.30;;
32824;SDS011;51060;42.640;24.356;2022-11-20T15:44:11;25.73;;;20.83;;
32824;SDS011;51060;42.640;24.356;2022-11-20T15:46:37;54.70;;;47.33;;
32824;SDS011;51060;42.640;24.356;2022-11-20T15:49:11;70.28;;;58.90;;
32824;SDS011;51060;42.640;24.356;2022-11-20T15:51:38;78.23;;;66.37;;
32824;SDS011;51060;42.640;24.356;2022-11-20T15:54:13;55.77;;;47.93;;
32824;SDS011;51060;42.640;24.356;2022-11-20T15:56:41;50.85;;;43.25;;
32824;SDS011;51060;42.640;24.356;2022-11-20T15:59:06;44.53;;;39.40;;
32824;SDS011;51060;42.640;24.356;2022-11-20T16:01:32;45.27;;;39.13;;
32824;SDS011;51060;42.640;24.356;2022-11-20T16:04:01;36.53;;;29.37;;